»·PEaware :: N1620 KSFO-KOTH

N1620 :: KSFO-KOTH

FLIGHT INFORMATION

Flight Status: Arrived
Operator: Privately registered:
United States
More flights under this callsign
Pilot: Tanner C. (11250)
Aircraft: GULFSTREAM G-1159C GULFSTREAM 4
(GLF4)
More flights by this aircraft type
Origin: KSFO San Francisco Intl
United States
Destination: KOTH North Bend Mun
United States
More flights between these airports :: More routes between these airports
Route: +TRUKN2 GRTFL RBL LEDGE LUPCI OTH
File this flight plan on PilotEdge
Remarks:
Altitude:
(Current/Filed)
40,000ft
Speed:
(Current/Filed)
500kts
Departed: 29-Oct-17 12:02 PM
Arrived: 29-Oct-17 01:00 PM
Distance/Time
Traveled:
358nm/0:58
Distance/Time
To Go:
Arrived

Flight Plot

Page will automatically refresh every two minutes.

Flight plan parsing failed; only flown route is shown


Map Options




Map Legend


Flown Route
Filed Route
Departure Airport
Arrival Airport
Navaid (VOR, NDB)
Fix

Horizontal Profiles

Position Reports

Time Latitude Longitude Heading Altitude Ground
Speed
29-Oct-17 11:49 37.627855 -122.384650 200 19ft 0kts
29-Oct-17 11:50 37.627855 -122.384650 200 19ft 0kts
29-Oct-17 11:51 37.627855 -122.384650 200 19ft 0kts
29-Oct-17 11:52 37.627855 -122.384650 200 19ft 0kts
29-Oct-17 11:53 37.627855 -122.384650 200 19ft 0kts
29-Oct-17 11:54 37.627855 -122.384650 200 19ft 0kts
29-Oct-17 11:55 37.627855 -122.384650 200 19ft 0kts
29-Oct-17 11:56 37.627855 -122.384650 200 19ft 0kts
29-Oct-17 11:57 37.627855 -122.384650 200 19ft 0kts
29-Oct-17 11:58 37.627855 -122.384650 200 19ft 0kts
29-Oct-17 11:59 37.627855 -122.384650 200 19ft 0kts
29-Oct-17 12:00 37.627847 -122.384654 202 19ft 0kts
29-Oct-17 12:01 37.625117 -122.381062 118 24ft 23kts
29-Oct-17 12:02 37.623018 -122.376058 118 20ft 14kts
29-Oct-17 12:03 37.620722 -122.370588 118 14ft 23kts
29-Oct-17 12:04 37.617714 -122.363421 118 11ft 19kts
29-Oct-17 12:05 37.615639 -122.358474 117 8ft 12kts
29-Oct-17 12:06 37.614462 -122.356756 196 8ft 0kts
29-Oct-17 12:07 37.615832 -122.362607 297 10ft 121kts
29-Oct-17 12:08 37.655218 -122.393501 31 6052ft 244kts
29-Oct-17 12:09 37.681187 -122.312288 64 12618ft 298kts
29-Oct-17 12:10 37.743832 -122.226171 15 17376ft 397kts
29-Oct-17 12:11 37.856849 -122.218691 2 22882ft 436kts
29-Oct-17 12:12 37.981918 -122.221537 1 27625ft 466kts
29-Oct-17 12:13 38.108792 -122.224797 0 32432ft 462kts
29-Oct-17 12:14 38.226761 -122.227775 357 36711ft 441kts
29-Oct-17 12:15 38.344126 -122.231269 358 39911ft 432kts
29-Oct-17 12:16 38.473480 -122.231805 359 39981ft 497kts
29-Oct-17 12:17 38.609199 -122.232159 359 39966ft 494kts
29-Oct-17 12:18 38.745455 -122.232536 359 39967ft 495kts
29-Oct-17 12:19 38.881664 -122.232907 359 39942ft 495kts
29-Oct-17 12:20 39.007232 -122.233260 359 39941ft 495kts
29-Oct-17 12:21 39.140318 -122.233628 358 39939ft 495kts
29-Oct-17 12:22 39.274075 -122.234003 358 39939ft 496kts
29-Oct-17 12:23 39.410094 -122.234383 358 39940ft 496kts
29-Oct-17 12:24 39.546880 -122.234770 358 39966ft 497kts
29-Oct-17 12:25 39.683475 -122.235154 358 39967ft 497kts
29-Oct-17 12:26 39.820518 -122.235551 358 39967ft 506kts
29-Oct-17 12:27 39.960402 -122.235941 358 39940ft 509kts
29-Oct-17 12:28 40.099807 -122.244241 342 39952ft 502kts
29-Oct-17 12:29 40.215883 -122.309208 333 39939ft 489kts
29-Oct-17 12:30 40.337223 -122.384702 333 39939ft 490kts
29-Oct-17 12:31 40.438868 -122.448455 333 39941ft 493kts
29-Oct-17 12:32 40.580786 -122.537543 333 39939ft 490kts
29-Oct-17 12:33 40.702044 -122.614101 333 40029ft 490kts
29-Oct-17 12:34 40.801735 -122.677269 332 40048ft 490kts
29-Oct-17 12:35 40.923418 -122.754662 332 40048ft 490kts
29-Oct-17 12:36 41.065157 -122.845197 332 40049ft 490kts
29-Oct-17 12:37 41.158390 -122.905136 332 40048ft 490kts
29-Oct-17 12:38 41.277810 -122.981903 332 40048ft 490kts
29-Oct-17 12:39 41.396380 -123.058542 332 40048ft 490kts
29-Oct-17 12:40 41.518280 -123.137635 332 39423ft 493kts
29-Oct-17 12:41 41.640164 -123.217109 332 39076ft 493kts
29-Oct-17 12:42 41.761458 -123.296505 332 39074ft 493kts
29-Oct-17 12:43 41.883578 -123.376826 331 39026ft 493kts
29-Oct-17 12:44 42.005154 -123.457047 332 39020ft 493kts
29-Oct-17 12:45 42.123389 -123.535430 332 39072ft 493kts
29-Oct-17 12:46 42.243014 -123.615058 332 38619ft 497kts
29-Oct-17 12:47 42.364153 -123.696000 330 36656ft 496kts
29-Oct-17 12:48 42.487147 -123.778559 329 34292ft 502kts
29-Oct-17 12:49 42.611889 -123.862798 329 31843ft 514kts
29-Oct-17 12:50 42.738928 -123.948887 329 29386ft 519kts
29-Oct-17 12:51 42.867256 -124.036273 330 26926ft 521kts
29-Oct-17 12:52 42.994952 -124.123565 330 24247ft 495kts
29-Oct-17 12:53 43.112320 -124.176218 352 21134ft 405kts
29-Oct-17 12:54 43.219462 -124.177170 358 18296ft 392kts
29-Oct-17 12:55 43.316394 -124.172875 358 14873ft 315kts
29-Oct-17 12:56 43.391894 -124.187700 305 11411ft 262kts
29-Oct-17 12:57 43.423750 -124.277610 295 9676ft 262kts
29-Oct-17 12:58 43.452557 -124.362059 295 7220ft 229kts
29-Oct-17 12:59 43.474801 -124.443857 253 4617ft 242kts
29-Oct-17 13:00 43.422294 -124.452534 155 2992ft 210kts
29-Oct-17 13:01 43.374848 -124.417964 141 2911ft 200kts
29-Oct-17 13:02 43.376199 -124.358463 36 2109ft 160kts
29-Oct-17 13:03 43.394836 -124.308652 61 822ft 136kts
29-Oct-17 13:04 43.414120 -124.262170 62 73ft 133kts
29-Oct-17 13:05 43.420706 -124.242942 237 13ft 8kts
29-Oct-17 13:06 43.418243 -124.246755 241 22ft 8kts
29-Oct-17 13:08 43.417236 -124.246852 149 24ft 0kts
29-Oct-17 13:09 43.417236 -124.246852 149 24ft 0kts
29-Oct-17 13:10 43.417236 -124.246852 149 24ft 0kts
29-Oct-17 13:11 43.417236 -124.246852 149 24ft 0kts
29-Oct-17 13:12 43.417236 -124.246852 149 24ft 0kts

Navigation Log

Ident Type
Flight plan parsing failed, navigation log unavailable